.
WxDataArchive / Data Records for 2015-05-22
2015-05-21 May 2015 2015-05-23

Data Records for Friday, 22 May 2015

Time	Temp	Chill	HIndex	Humid	Dewpt	 Wind 	HiWind	WindDir	Rain 	Barom
-----	----	-----	------	-----	-----	------	------	-------	-----	-----
00:00	50.5	50.5	50.5	63	38.4	0	0	---	0.00	30.029 
00:05	50.4	50.4	50.4	64	38.7	0	0	---	0.00	30.029 
00:10	50.2	50.2	50.2	64	38.5	0	0	---	0.00	30.029 
00:15	50.2	50.2	50.2	64	38.5	0	0	---	0.00	30.034 
00:20	50.2	50.2	50.2	64	38.5	0	0	---	0.00	30.034 
00:25	50.2	50.2	50.2	65	38.9	0	0	---	0.00	30.034 
00:30	50.2	50.2	50.2	65	38.9	0	0	---	0.00	30.032 
00:35	50.2	50.2	50.2	65	38.9	0	0	---	0.00	30.032 
00:40	50.4	50.4	50.4	65	39.1	0	0	---	0.00	30.032 
00:45	50.4	50.4	50.4	65	39.1	0	0	---	0.00	30.032 
00:50	50.2	50.2	50.2	65	38.9	0	0	---	0.00	30.032 
00:55	50.2	50.2	50.2	65	38.9	0	1	270	0.00	30.032 
01:00	50.2	50.2	50.2	65	38.9	0	1	---	0.00	30.027 
01:05	50.4	50.4	50.4	65	39.1	0	0	---	0.00	30.027 
01:10	50.4	50.4	50.4	65	39.1	0	0	---	0.00	30.027 
01:15	50.5	50.5	50.5	64	38.8	0	0	---	0.00	30.026 
01:20	50.7	50.7	50.7	64	39.0	0	0	---	0.00	30.026 
01:25	50.7	50.7	50.7	64	39.0	0	1	270	0.00	30.026 
01:30	50.7	50.7	50.7	63	38.6	0	0	---	0.00	30.022 
01:35	50.7	50.7	50.7	63	38.6	0	0	---	0.00	30.022 
01:40	50.7	50.7	50.7	63	38.6	0	0	---	0.00	30.022 
01:45	50.7	50.7	50.7	63	38.6	0	0	---	0.00	30.019 
01:50	50.7	50.7	50.7	63	38.6	0	1	270	0.00	30.019 
01:55	50.7	50.7	50.7	62	38.2	0	0	---	0.00	30.019 
02:00	50.8	50.8	50.8	63	38.7	0	1	270	0.00	30.018 
02:05	50.8	50.8	50.8	63	38.7	0	0	---	0.00	30.018 
02:10	50.7	50.7	50.7	62	38.2	0	0	---	0.00	30.018 
02:15	50.5	50.5	50.5	62	38.0	0	0	---	0.00	30.018 
02:20	50.5	50.5	50.5	62	38.0	0	0	---	0.00	30.018 
02:25	50.4	50.4	50.4	62	37.9	0	0	---	0.00	30.018 
02:30	50.4	50.4	50.4	62	37.9	0	0	---	0.00	30.017 
02:35	50.4	50.4	50.4	62	37.9	0	0	---	0.00	30.017 
02:40	50.4	50.4	50.4	62	37.9	0	0	---	0.00	30.017 
02:45	50.4	50.4	50.4	62	37.9	0	0	---	0.00	30.017 
02:50	50.2	50.2	50.2	63	38.1	0	0	---	0.00	30.017 
02:55	50.1	50.1	50.1	63	38.0	0	0	---	0.00	30.017 
03:00	49.9	49.9	49.9	62	37.4	0	0	---	0.00	30.017 
03:05	49.9	49.9	49.9	62	37.4	0	0	---	0.00	30.017 
03:10	50.1	50.1	50.1	62	37.6	0	0	---	0.00	30.017 
03:15	50.1	50.1	50.1	62	37.6	0	0	---	0.00	30.015 
03:20	50.1	50.1	50.1	62	37.6	0	0	---	0.00	30.015 
03:25	50.1	50.1	50.1	62	37.6	0	1	270	0.00	30.015 
03:30	50.2	50.2	50.2	62	37.7	0	1	270	0.00	30.017 
03:35	50.4	50.4	50.4	62	37.9	0	2	270	0.00	30.017 
03:40	50.4	50.4	50.4	62	37.9	0	2	270	0.00	30.017 
03:45	50.4	50.4	50.4	62	37.9	0	1	270	0.00	30.023 
03:50	50.4	50.4	50.4	62	37.9	0	1	270	0.00	30.023 
03:55	50.4	50.4	50.4	62	37.9	0	1	270	0.00	30.023 
04:00	50.4	50.4	50.4	62	37.9	0	1	270	0.00	30.026 
04:05	50.4	50.4	50.4	62	37.9	1	3	270	0.00	30.026 
04:10	50.7	50.7	50.7	62	38.2	1	2	270	0.00	30.026 
04:15	50.8	50.8	50.8	62	38.3	1	3	270	0.00	30.038 
04:20	51.0	51.0	51.0	61	38.0	0	3	270	0.00	30.038 
04:25	51.0	51.0	51.0	62	38.4	0	1	270	0.00	30.038 
04:30	51.0	51.0	51.0	62	38.4	0	1	270	0.00	30.038 
04:35	51.0	51.0	51.0	62	38.4	1	2	270	0.00	30.038 
04:40	51.1	51.1	51.1	62	38.5	1	2	270	0.00	30.038 
04:45	51.3	51.3	51.3	62	38.7	1	3	270	0.00	30.043 
04:50	51.4	51.4	51.4	62	38.8	1	3	270	0.00	30.043 
04:55	51.6	51.6	51.6	62	39.0	0	2	270	0.00	30.043 
05:00	51.6	51.6	51.6	62	39.0	1	3	270	0.00	30.046 
05:05	51.6	51.6	51.6	62	39.0	0	2	270	0.00	30.046 
05:10	51.6	51.6	51.6	62	39.0	0	2	270	0.00	30.046 
05:15	51.4	51.4	51.4	62	38.8	0	2	270	0.00	30.049 
05:20	51.4	51.4	51.4	62	38.8	0	1	270	0.00	30.049 
05:25	51.3	51.3	51.3	63	39.1	0	1	270	0.00	30.049 
05:30	51.0	51.0	51.0	64	39.3	0	0	---	0.00	30.051 
05:35	50.8	50.8	50.8	65	39.5	0	0	---	0.00	30.051 
05:40	50.5	50.5	50.5	65	39.2	0	0	---	0.00	30.051 
05:45	50.4	50.4	50.4	66	39.5	0	0	---	0.00	30.051 
05:50	50.1	50.1	50.1	66	39.2	0	0	---	0.00	30.051 
05:55	49.9	49.9	49.9	67	39.4	0	0	---	0.00	30.051 
06:00	49.8	49.8	49.8	68	39.7	0	0	---	0.00	30.049 
06:05	49.8	49.8	49.8	68	39.7	0	0	---	0.00	30.049 
06:10	49.8	49.8	49.8	69	40.0	0	0	---	0.00	30.049 
06:15	50.1	50.1	50.1	68	40.0	0	0	---	0.00	30.056 
06:20	50.2	50.2	50.2	69	40.4	0	0	---	0.00	30.056 
06:25	50.2	50.2	50.2	69	40.4	0	0	---	0.00	30.056 
06:30	50.2	50.2	50.2	69	40.4	0	0	---	0.00	30.059 
06:35	50.2	50.2	50.2	70	40.8	0	0	---	0.00	30.059 
06:40	50.2	50.2	50.2	70	40.8	0	0	---	0.00	30.059 
06:45	50.2	50.2	50.2	70	40.8	0	1	270	0.00	30.059 
06:50	50.4	50.4	50.4	70	41.0	0	0	---	0.00	30.059 
06:55	50.5	50.5	50.5	69	40.7	0	0	---	0.00	30.059 
07:00	50.7	50.7	50.7	69	40.9	0	0	---	0.00	30.062 
07:05	50.7	50.7	50.7	69	40.9	0	0	---	0.00	30.062 
07:10	50.7	50.7	50.7	69	40.9	0	0	---	0.00	30.062 
07:15	51.0	51.0	51.0	69	41.2	0	1	270	0.00	30.082 
07:20	51.1	51.1	51.1	69	41.3	0	2	270	0.00	30.082 
07:25	51.4	51.4	51.4	68	41.2	0	2	270	0.00	30.082 
07:30	51.7	51.7	51.7	68	41.5	0	2	270	0.00	30.090 
07:35	51.9	51.9	51.9	67	41.3	0	2	270	0.00	30.090 
07:40	52.2	52.2	52.2	67	41.6	0	1	270	0.00	30.090 
07:45	52.5	52.5	52.5	66	41.5	0	1	292	0.00	30.091 
07:50	52.9	52.9	52.9	65	41.5	0	2	292	0.00	30.091 
07:55	53.2	53.2	53.2	65	41.7	1	3	292	0.00	30.091 
08:00	53.5	53.5	53.5	64	41.6	1	2	292	0.00	30.103 
08:05	53.9	53.9	53.9	64	42.0	0	2	292	0.00	30.103 
08:10	54.2	54.2	54.2	64	42.3	1	2	292	0.00	30.103 
08:15	54.7	54.7	54.7	63	42.4	0	3	292	0.00	30.106 
08:20	55.1	55.1	55.1	63	42.7	1	2	292	0.00	30.106 
08:25	55.6	55.6	55.6	62	42.8	0	2	292	0.00	30.106 
08:30	56.0	56.0	56.0	62	43.2	0	2	292	0.00	30.108 
08:35	56.5	56.5	56.5	62	43.6	0	3	292	0.00	30.108 
08:40	56.9	56.9	56.9	64	44.8	0	1	292	0.00	30.108 
08:45	57.3	57.3	57.3	63	44.8	0	2	292	0.00	30.113 
08:50	57.5	57.5	57.5	61	44.2	0	2	90	0.00	30.113 
08:55	57.5	57.5	57.5	59	43.3	1	4	68	0.00	30.113 
09:00	57.8	57.8	57.8	58	43.1	0	2	68	0.00	30.118 
09:05	58.0	58.0	58.0	58	43.3	0	2	68	0.00	30.118 
09:10	58.3	58.3	58.3	57	43.1	0	3	68	0.00	30.118 
09:15	58.7	58.7	58.7	56	43.0	0	2	68	0.00	30.122 
09:20	58.9	58.9	58.9	56	43.2	1	3	68	0.00	30.122 
09:25	59.3	59.3	59.3	53	42.2	0	3	68	0.00	30.122 
09:30	59.6	59.6	59.6	53	42.4	1	3	68	0.00	30.127 
09:35	59.6	59.6	59.6	51	41.4	1	3	45	0.00	30.127 
09:40	59.9	59.9	59.9	50	41.2	1	4	45	0.00	30.127 
09:45	60.2	60.2	60.2	51	42.0	1	3	45	0.00	30.133 
09:50	60.2	60.2	60.2	48	40.4	1	3	68	0.00	30.133 
09:55	60.7	60.7	60.7	48	40.9	0	2	68	0.00	30.133 
10:00	61.0	61.0	61.0	50	42.2	1	3	68	0.00	30.136 
10:05	61.2	61.2	61.2	47	40.8	0	3	68	0.00	30.136 
10:10	61.3	61.3	61.3	45	39.8	1	4	68	0.00	30.136 
10:15	61.8	61.8	61.8	44	39.7	1	3	68	0.00	30.138 
10:20	62.3	62.3	62.3	44	40.1	1	3	68	0.00	30.138 
10:25	62.4	62.4	62.4	42	39.0	1	4	68	0.00	30.138 
10:30	62.4	62.4	62.4	39	37.1	2	4	68	0.00	30.140 
10:35	62.7	62.7	62.7	39	37.4	1	4	68	0.00	30.140 
10:40	62.7	62.7	62.7	34	33.9	0	2	90	0.00	30.140 
10:45	62.9	62.9	62.9	36	35.5	1	3	90	0.00	30.145 
10:50	63.1	63.1	63.1	37	36.4	1	3	90	0.00	30.145 
10:55	63.4	63.4	63.4	36	36.0	1	4	90	0.00	30.145 
11:00	63.7	63.7	63.7	39	38.3	0	2	90	0.00	30.148 
11:05	64.2	64.2	64.2	35	36.0	1	3	90	0.00	30.148 
11:10	64.5	64.5	64.5	34	35.5	2	5	90	0.00	30.148 
11:15	64.5	64.5	64.5	32	34.0	1	4	90	0.00	30.150 
11:20	64.2	64.2	64.2	32	33.7	1	4	90	0.00	30.150 
11:25	64.5	64.5	64.5	35	36.2	1	4	45	0.00	30.150 
11:30	65.0	65.0	65.0	34	35.9	1	3	90	0.00	30.152 
11:35	65.0	65.0	65.0	30	32.8	1	4	90	0.00	30.152 
11:40	65.0	65.0	65.0	37	38.1	0	1	90	0.00	30.152 
11:45	65.3	65.3	65.3	34	36.2	0	3	90	0.00	30.155 
11:50	65.5	65.5	65.5	31	34.1	0	4	90	0.00	30.155 
11:55	65.8	65.8	65.8	28	31.8	2	5	90	0.00	30.155 
12:00	66.0	66.0	66.0	31	34.5	1	4	90	0.00	30.166 
12:05	66.1	66.1	66.1	32	35.4	1	3	112	0.00	30.166 
12:10	66.1	66.1	66.1	34	36.9	1	2	112	0.00	30.166 
12:15	66.0	66.0	66.0	34	36.8	1	3	22	0.00	30.166 
12:20	66.0	66.0	66.0	31	34.5	0	3	68	0.00	30.166 
12:25	66.0	66.0	66.0	29	32.8	1	5	68	0.00	30.166 
12:30	66.0	66.0	66.0	30	33.7	1	4	68	0.00	30.166 
12:35	66.1	66.1	66.1	30	33.8	0	2	22	0.00	30.166 
12:40	66.1	66.1	66.1	30	33.8	0	2	22	0.00	30.166 
12:45	66.6	66.6	66.6	38	40.2	0	2	22	0.00	30.166 
12:50	66.9	66.9	66.9	29	33.6	1	4	68	0.00	30.166 
12:55	67.3	67.3	67.3	31	35.6	0	2	68	0.00	30.166 
13:00	67.1	67.1	67.1	29	33.8	1	5	90	0.00	30.167 
13:05	67.6	67.6	67.6	35	39.0	0	1	90	0.00	30.167 
13:10	68.1	68.1	68.1	32	37.1	1	4	90	0.00	30.167 
13:15	67.9	67.9	67.9	29	34.5	1	4	90	0.00	30.165 
13:20	68.3	68.3	68.3	32	37.3	0	2	90	0.00	30.165 
13:25	68.4	68.4	68.4	30	35.7	0	2	90	0.00	30.165 
13:30	68.8	68.8	68.8	31	36.9	1	4	90	0.00	30.162 
13:35	68.8	68.8	68.8	31	36.9	1	4	90	0.00	30.162 
13:40	68.8	68.8	68.8	27	33.5	0	2	90	0.00	30.162 
13:45	68.8	68.8	68.8	29	35.2	1	4	90	0.00	30.167 
13:50	68.3	68.3	68.3	29	34.8	1	4	90	0.00	30.167 
13:55	68.3	68.3	68.3	31	36.5	0	3	90	0.00	30.167 
14:00	68.6	68.6	68.6	30	35.9	0	2	90	0.00	30.168 
14:05	68.9	68.9	68.9	27	33.5	0	3	90	0.00	30.168 
14:10	68.8	68.8	68.8	28	34.4	1	3	338	0.00	30.168 
14:15	69.1	69.1	69.1	31	37.2	1	3	90	0.00	30.174 
14:20	69.1	69.1	69.1	28	34.6	1	3	90	0.00	30.174 
14:25	69.1	69.1	69.1	34	39.5	1	4	90	0.00	30.174 
14:30	69.3	69.3	69.3	28	34.8	1	3	90	0.00	30.173 
14:35	69.3	69.3	69.3	28	34.8	1	5	0	0.00	30.173 
14:40	69.4	69.4	69.4	28	34.9	1	3	0	0.00	30.173 
14:45	69.6	69.6	69.6	27	34.1	0	1	315	0.00	30.171 
14:50	69.9	69.9	69.9	28	35.3	1	4	315	0.00	30.171 
14:55	69.8	69.8	69.8	26	33.4	1	3	292	0.00	30.171 
15:00	70.3	70.3	70.3	27	34.7	1	3	0	0.00	30.171 
15:05	70.3	70.3	70.3	27	34.7	1	5	315	0.00	30.171 
15:10	70.3	70.3	70.3	28	35.6	1	4	315	0.00	30.171 
15:15	70.3	70.3	70.3	26	33.8	1	4	90	0.00	30.174 
15:20	70.4	70.4	70.4	28	35.7	0	3	90	0.00	30.174 
15:25	70.8	70.8	70.8	26	34.2	0	2	90	0.00	30.174 
15:30	70.6	70.6	70.6	26	34.0	1	3	90	0.00	30.171 
15:35	70.3	70.3	70.3	27	34.7	1	2	90	0.00	30.171 
15:40	70.1	70.1	70.1	27	34.6	1	4	338	0.00	30.171 
15:45	70.6	70.6	70.6	26	34.0	2	3	270	0.00	30.172 
15:50	70.8	70.8	70.8	26	34.2	1	5	270	0.00	30.172 
15:55	70.9	70.9	70.9	26	34.3	1	3	315	0.00	30.172 
16:00	71.3	71.3	71.3	27	35.6	0	3	315	0.00	30.175 
16:05	71.5	71.5	71.5	25	33.8	1	3	0	0.00	30.175 
16:10	71.6	71.6	71.6	24	32.9	1	3	292	0.00	30.175 
16:15	71.8	71.8	71.8	24	33.1	0	2	292	0.00	30.173 
16:20	71.6	71.6	71.6	25	33.9	1	2	292	0.00	30.173 
16:25	71.5	71.5	71.5	26	34.8	2	5	292	0.00	30.173 
16:30	71.1	71.1	71.1	25	33.5	2	5	270	0.00	30.176 
16:35	71.1	71.1	71.1	25	33.5	1	6	315	0.00	30.176 
16:40	70.9	70.9	70.9	25	33.3	1	5	338	0.00	30.176 
16:45	71.1	71.1	71.1	27	35.4	1	3	292	0.00	30.176 
16:50	71.3	71.3	71.3	25	33.7	1	5	315	0.00	30.176 
16:55	71.3	71.3	71.3	25	33.7	1	3	315	0.00	30.176 
17:00	71.5	71.5	71.5	26	34.8	0	1	315	0.00	30.177 
17:05	71.6	71.6	71.6	25	33.9	1	3	315	0.00	30.177 
17:10	72.0	72.0	72.0	26	35.2	1	4	315	0.00	30.177 
17:15	71.6	71.6	71.6	24	32.9	2	3	315	0.00	30.183 
17:20	71.6	71.6	71.6	26	34.9	1	4	315	0.00	30.183 
17:25	71.5	71.5	71.5	25	33.8	1	4	315	0.00	30.183 
17:30	71.1	71.1	71.1	26	34.5	2	3	315	0.00	30.184 
17:35	71.1	71.1	71.1	26	34.5	2	5	292	0.00	30.184 
17:40	70.9	70.9	70.9	25	33.3	1	4	292	0.00	30.184 
17:45	70.6	70.6	70.6	26	34.0	1	4	315	0.00	30.181 
17:50	70.6	70.6	70.6	27	35.0	1	4	315	0.00	30.181 
17:55	70.3	70.3	70.3	27	34.7	1	3	292	0.00	30.181 
18:00	69.9	69.9	69.9	26	33.4	2	3	315	0.00	30.188 
18:05	69.8	69.8	69.8	28	35.2	1	4	315	0.00	30.188 
18:10	69.6	69.6	69.6	27	34.1	2	5	315	0.00	30.188 
18:15	69.4	69.4	69.4	28	34.9	2	5	315	0.00	30.194 
18:20	69.1	69.1	69.1	27	33.7	2	4	270	0.00	30.194 
18:25	68.9	68.9	68.9	26	32.6	1	5	270	0.00	30.194 
18:30	68.9	68.9	68.9	27	33.5	1	3	315	0.00	30.194 
18:35	68.9	68.9	68.9	28	34.4	1	4	315	0.00	30.194 
18:40	68.9	68.9	68.9	29	35.3	1	4	315	0.00	30.194 
18:45	68.8	68.8	68.8	28	34.4	1	4	315	0.00	30.184 
18:50	68.8	68.8	68.8	28	34.4	1	3	338	0.00	30.184 
18:55	68.6	68.6	68.6	28	34.2	0	1	338	0.00	30.184 
19:00	68.3	68.3	68.3	28	33.9	0	3	338	0.00	30.187 
19:05	68.1	68.1	68.1	31	36.3	0	1	338	0.00	30.187 
19:10	67.9	67.9	67.9	30	35.3	0	1	338	0.00	30.187 
19:15	67.9	67.9	67.9	27	32.7	1	4	338	0.00	30.191 
19:20	68.1	68.1	68.1	28	33.8	0	2	112	0.00	30.191 
19:25	68.1	68.1	68.1	29	34.6	0	1	112	0.00	30.191 
19:30	68.1	68.1	68.1	29	34.6	0	1	112	0.00	30.200 
19:35	68.1	68.1	68.1	29	34.6	0	2	112	0.00	30.200 
19:40	67.9	67.9	67.9	28	33.6	0	2	112	0.00	30.200 
19:45	67.6	67.6	67.6	29	34.2	0	1	112	0.00	30.209 
19:50	67.4	67.4	67.4	30	34.9	0	1	112	0.00	30.209 
19:55	67.1	67.1	67.1	29	33.8	0	1	112	0.00	30.209 
20:00	66.9	66.9	66.9	30	34.5	0	0	---	0.00	30.214 
20:05	66.8	66.8	66.8	32	36.0	0	0	---	0.00	30.214 
20:10	66.4	66.4	66.4	32	35.6	0	0	---	0.00	30.214 
20:15	66.1	66.1	66.1	34	36.9	0	0	---	0.00	30.208 
20:20	65.6	65.6	65.6	34	36.5	0	0	---	0.00	30.208 
20:25	65.3	65.3	65.3	34	36.2	0	0	---	0.00	30.208 
20:30	65.0	65.0	65.0	33	35.2	0	0	---	0.00	30.211 
20:35	64.7	64.7	64.7	34	35.7	0	0	---	0.00	30.211 
20:40	64.5	64.5	64.5	35	36.2	0	0	---	0.00	30.211 
20:45	64.0	64.0	64.0	35	35.8	0	0	---	0.00	30.217 
20:50	63.7	63.7	63.7	36	36.2	0	0	---	0.00	30.217 
20:55	63.4	63.4	63.4	36	36.0	0	0	---	0.00	30.217 
21:00	63.2	63.2	63.2	37	36.5	0	0	---	0.00	30.225 
21:05	62.9	62.9	62.9	37	36.2	0	0	---	0.00	30.225 
21:10	62.6	62.6	62.6	38	36.6	0	1	112	0.00	30.225 
21:15	62.3	62.3	62.3	38	36.4	0	0	---	0.00	30.223 
21:20	62.1	62.1	62.1	38	36.2	0	1	112	0.00	30.223 
21:25	62.0	62.0	62.0	38	36.1	0	1	112	0.00	30.223 
21:30	61.8	61.8	61.8	38	35.9	0	1	112	0.00	30.225 
21:35	61.6	61.6	61.6	38	35.7	0	1	112	0.00	30.225 
21:40	61.5	61.5	61.5	38	35.7	0	1	112	0.00	30.225 
21:45	61.3	61.3	61.3	38	35.5	0	1	112	0.00	30.234 
21:50	61.0	61.0	61.0	38	35.2	0	1	112	0.00	30.234 
21:55	60.9	60.9	60.9	38	35.1	0	1	112	0.00	30.234 
22:00	60.5	60.5	60.5	39	35.4	0	1	112	0.00	30.240 
22:05	60.4	60.4	60.4	39	35.3	0	2	112	0.00	30.240 
22:10	60.2	60.2	60.2	39	35.2	0	1	112	0.00	30.240 
22:15	60.1	60.1	60.1	39	35.1	0	2	112	0.00	30.248 
22:20	59.9	59.9	59.9	39	34.9	0	1	112	0.00	30.248 
22:25	59.8	59.8	59.8	39	34.8	0	1	112	0.00	30.248 
22:30	59.6	59.6	59.6	39	34.6	0	2	112	0.00	30.253 
22:35	59.5	59.5	59.5	39	34.5	0	1	112	0.00	30.253 
22:40	59.3	59.3	59.3	39	34.3	0	1	112	0.00	30.253 
22:45	59.0	59.0	59.0	39	34.1	0	1	112	0.00	30.259 
22:50	58.9	58.9	58.9	39	34.0	0	1	112	0.00	30.259 
22:55	58.7	58.7	58.7	39	33.8	0	1	112	0.00	30.259 
23:00	58.6	58.6	58.6	40	34.4	0	1	112	0.00	30.265 
23:05	58.3	58.3	58.3	41	34.7	0	1	112	0.00	30.265 
23:10	58.0	58.0	58.0	41	34.4	0	1	112	0.00	30.265 
23:15	57.8	57.8	57.8	42	34.9	0	0	---	0.00	30.269 
23:20	57.6	57.6	57.6	42	34.7	0	1	112	0.00	30.269 
23:25	57.3	57.3	57.3	42	34.4	0	0	---	0.00	30.269 
23:30	57.2	57.2	57.2	43	34.9	0	0	---	0.00	30.272 
23:35	56.9	56.9	56.9	43	34.6	0	0	---	0.00	30.272 
23:40	56.6	56.6	56.6	43	34.4	0	0	---	0.00	30.272 
23:45	56.5	56.5	56.5	43	34.3	0	1	112	0.00	30.272 
23:50	56.5	56.5	56.5	43	34.3	0	0	---	0.00	30.272 
23:55	56.3	56.3	56.3	44	34.7	0	0	---	0.00	30.272 

CoCoRaHS
IN-AL-39
A2 Web Hosting
Creative Commons License
GoDaddy
search engine by freefind advanced

loaded 2018-11-20 14:52:20 • last modified 2010-11-18 10:43:29
Privacy PolicyDisclaimer
• wx.awcolley.com is powered by PmWiki v.2002016 •
• all content (unless otherwise noted) © 2018 A W Colley